createdAt,value
2023-04-12T00:02:55.025Z,12.30
2023-04-12T00:07:58.122Z,12.20
2023-04-12T00:13:02.422Z,12.18
2023-04-12T00:18:05.522Z,12.06
2023-04-12T00:23:09.726Z,11.99
2023-04-12T00:28:13.814Z,11.81
2023-04-12T00:33:16.380Z,11.93
2023-04-12T00:38:20.096Z,11.83
2023-04-12T00:43:27.554Z,11.75
2023-04-12T00:48:31.704Z,11.81
2023-04-12T00:53:34.950Z,11.87
2023-04-12T00:58:39.481Z,11.80
2023-04-12T01:03:43.028Z,11.74
2023-04-12T01:08:55.930Z,11.65
2023-04-12T01:14:07.921Z,11.69
2023-04-12T01:19:35.093Z,11.62
2023-04-12T01:24:48.823Z,11.61
2023-04-12T01:29:52.850Z,11.56
2023-04-12T01:34:56.627Z,11.47
2023-04-12T01:40:00.169Z,11.46
2023-04-12T01:45:05.001Z,11.44
2023-04-12T01:50:15.548Z,11.33
2023-04-12T01:55:21.901Z,11.25
2023-04-12T02:00:26.868Z,11.22
2023-04-12T02:05:29.480Z,11.33
2023-04-12T02:10:33.184Z,11.27
2023-04-12T02:15:38.478Z,11.24
2023-04-12T02:20:43.716Z,11.13
2023-04-12T02:25:46.622Z,11.12
2023-04-12T02:30:55.011Z,11.04
2023-04-12T02:36:02.418Z,11.02
2023-04-12T02:41:06.054Z,10.94
2023-04-12T02:46:13.553Z,11.00
2023-04-12T02:51:23.216Z,10.94
2023-04-12T02:56:26.870Z,10.97
2023-04-12T03:01:39.669Z,10.90
2023-04-12T03:07:00.496Z,10.98
2023-04-12T03:12:11.918Z,10.87
2023-04-12T03:17:24.622Z,10.90
2023-04-12T03:22:29.091Z,10.91
2023-04-12T03:27:35.323Z,10.89
2023-04-12T03:32:39.865Z,10.73
2023-04-12T03:37:44.898Z,10.90
2023-04-12T03:42:49.097Z,10.84
2023-04-12T03:47:53.068Z,10.80
2023-04-12T03:52:56.703Z,10.87
2023-04-12T03:58:05.137Z,10.88
2023-04-12T04:03:15.299Z,10.85
2023-04-12T04:08:28.971Z,10.84
2023-04-12T04:13:31.986Z,10.86
2023-04-12T04:18:40.348Z,10.75
2023-04-12T04:23:47.757Z,10.76
2023-04-12T04:28:51.664Z,10.70
2023-04-12T04:33:59.666Z,10.64
2023-04-12T04:39:06.392Z,10.69
2023-04-12T04:44:14.288Z,10.69
2023-04-12T04:49:45.693Z,10.55
2023-04-12T04:54:58.773Z,10.61
2023-04-12T05:00:11.345Z,10.46
2023-04-12T05:05:17.423Z,10.54
2023-04-12T05:10:21.993Z,10.53
2023-04-12T05:15:24.914Z,10.83
2023-04-12T05:20:29.380Z,10.91
2023-04-12T05:25:32.961Z,11.28
2023-04-12T05:30:40.878Z,10.95
2023-04-12T05:35:47.037Z,10.64
2023-04-12T05:40:50.193Z,10.55
2023-04-12T05:45:57.571Z,10.53
2023-04-12T05:51:04.880Z,10.36
2023-04-12T05:56:09.142Z,10.52
2023-04-12T06:01:11.842Z,10.49
2023-04-12T06:06:16.261Z,10.46
2023-04-12T06:11:19.082Z,10.52
2023-04-12T06:16:21.850Z,10.54
2023-04-12T06:21:26.444Z,10.46
2023-04-12T06:26:37.412Z,10.47
2023-04-12T06:31:42.398Z,10.48
2023-04-12T06:36:48.537Z,10.36
2023-04-12T06:41:53.800Z,10.48
2023-04-12T06:46:57.483Z,10.43
2023-04-12T06:52:01.402Z,10.46
2023-04-12T06:57:04.211Z,10.55
2023-04-12T07:02:07.687Z,10.52
2023-04-12T07:07:11.740Z,10.54
2023-04-12T07:12:14.626Z,10.59
2023-04-12T07:17:17.318Z,10.61
2023-04-12T07:22:21.277Z,10.58
2023-04-12T07:27:23.850Z,10.65
2023-04-12T07:32:27.314Z,10.72
2023-04-12T07:37:31.398Z,10.87
2023-04-12T07:42:33.966Z,10.82
2023-04-12T07:47:36.567Z,10.84
2023-04-12T07:52:40.621Z,10.82
2023-04-12T07:57:43.190Z,10.81
2023-04-12T08:02:45.926Z,10.84
2023-04-12T08:07:49.902Z,10.94
2023-04-12T08:12:52.536Z,10.99
2023-04-12T08:17:55.279Z,11.08
2023-04-12T08:22:59.349Z,10.98
2023-04-12T08:28:01.929Z,11.12
2023-04-12T08:33:04.770Z,11.05
2023-04-12T08:38:08.691Z,11.06
2023-04-12T08:43:13.220Z,11.22
2023-04-12T08:48:17.945Z,11.25
2023-04-12T08:53:22.034Z,11.18
2023-04-12T08:58:25.854Z,11.07
2023-04-12T09:03:31.990Z,11.21
2023-04-12T09:08:37.421Z,11.17
2023-04-12T09:13:40.744Z,11.24
2023-04-12T09:18:49.945Z,11.25
2023-04-12T09:24:05.788Z,11.39
2023-04-12T09:29:24.040Z,11.45
2023-04-12T09:34:28.105Z,11.31
2023-04-12T09:39:35.746Z,11.52
2023-04-12T09:44:39.026Z,11.74
2023-04-12T09:49:43.104Z,11.82
2023-04-12T09:54:49.025Z,12.26
2023-04-12T09:59:53.438Z,12.06
2023-04-12T10:04:56.445Z,12.01
2023-04-12T10:10:04.037Z,12.02
2023-04-12T10:15:12.658Z,11.89
2023-04-12T10:20:16.783Z,11.93
2023-04-12T10:25:22.566Z,12.22
2023-04-12T10:30:27.069Z,12.07
2023-04-12T10:35:30.407Z,12.13
2023-04-12T10:40:35.548Z,12.10
2023-04-12T10:45:39.145Z,12.40
2023-04-12T10:50:42.132Z,12.43
2023-04-12T10:55:46.865Z,12.56
2023-04-12T11:01:13.664Z,12.65
2023-04-12T11:06:26.998Z,12.62
2023-04-12T11:11:50.948Z,12.99
2023-04-12T11:17:22.677Z,13.18
2023-04-12T11:22:28.622Z,13.24
2023-04-12T11:27:34.331Z,13.44
2023-04-12T11:32:40.291Z,13.47
2023-04-12T11:37:43.209Z,13.45
2023-04-12T11:42:47.463Z,13.19
2023-04-12T11:47:52.081Z,13.20
2023-04-12T11:52:54.670Z,13.22
2023-04-12T11:58:00.839Z,13.11
2023-04-12T12:03:07.791Z,13.71
2023-04-12T12:08:11.854Z,13.76
2023-04-12T12:13:17.337Z,14.12
2023-04-12T12:18:19.915Z,14.51
2023-04-12T12:23:33.152Z,14.39
2023-04-12T12:28:39.626Z,14.53
2023-04-12T12:33:46.443Z,14.43
2023-04-12T12:38:54.520Z,13.90
2023-04-12T12:43:59.090Z,14.12
2023-04-12T12:49:01.834Z,14.08
2023-04-12T12:54:04.749Z,14.20
2023-04-12T12:59:09.030Z,14.26
2023-04-12T13:04:11.923Z,14.23
2023-04-12T13:09:14.894Z,14.24
2023-04-12T13:14:19.515Z,14.31
2023-04-12T13:19:22.654Z,13.80
2023-04-12T13:24:25.692Z,13.21
2023-04-12T13:29:30.193Z,12.54
2023-04-12T13:34:33.178Z,12.17
2023-04-12T13:39:36.279Z,12.05
2023-04-12T13:44:40.615Z,11.85
2023-04-12T13:49:43.324Z,11.85
2023-04-12T13:54:46.142Z,11.77
2023-04-12T13:59:50.064Z,11.75
2023-04-12T14:04:55.130Z,11.83
2023-04-12T14:09:57.847Z,11.82
2023-04-12T14:15:02.544Z,11.82
2023-04-12T14:20:07.895Z,11.73
2023-04-12T14:25:11.657Z,11.58
2023-04-12T14:30:18.379Z,11.48
2023-04-12T14:35:21.640Z,11.61
2023-04-12T14:40:24.801Z,11.12
2023-04-12T14:45:28.894Z,11.50
2023-04-12T14:50:31.805Z,11.56
2023-04-12T14:55:34.881Z,11.45
2023-04-12T15:00:39.207Z,11.14
2023-04-12T15:05:41.889Z,11.00
2023-04-12T15:10:44.550Z,10.85
2023-04-12T15:15:48.468Z,11.11
2023-04-12T15:20:51.416Z,11.45
2023-04-12T15:25:59.820Z,11.36
2023-04-12T15:31:04.420Z,11.48
2023-04-12T15:36:07.617Z,11.69
2023-04-12T15:41:10.435Z,11.70
2023-04-12T15:46:15.494Z,11.68
2023-04-12T15:51:18.290Z,11.63
2023-04-12T15:56:24.215Z,11.87
2023-04-12T16:01:29.281Z,11.76
2023-04-12T16:06:34.667Z,11.61
2023-04-12T16:11:37.238Z,11.50
2023-04-12T16:16:41.273Z,11.04
2023-04-12T16:21:44.729Z,10.91
2023-04-12T16:26:48.006Z,10.69
2023-04-12T16:31:52.569Z,10.74
2023-04-12T16:36:55.682Z,10.72
2023-04-12T16:41:58.320Z,10.74
2023-04-12T16:47:02.383Z,10.75
2023-04-12T16:52:05.053Z,10.90
2023-04-12T16:57:07.608Z,11.00
2023-04-12T17:02:12.525Z,11.14
2023-04-12T17:07:15.141Z,11.18
2023-04-12T17:12:17.657Z,11.09
2023-04-12T17:17:21.573Z,11.11
2023-04-12T17:22:24.225Z,11.10
2023-04-12T17:27:27.531Z,11.11
2023-04-12T17:32:31.964Z,10.90
2023-04-12T17:37:35.635Z,10.82
2023-04-12T17:42:38.698Z,10.68
2023-04-12T17:47:43.672Z,10.69
2023-04-12T17:52:46.803Z,10.63
2023-04-12T17:57:49.894Z,10.56
2023-04-12T18:02:54.374Z,10.58
2023-04-12T18:07:58.125Z,10.49
2023-04-12T18:13:00.888Z,10.48
2023-04-12T18:18:05.430Z,10.33
2023-04-12T18:23:08.222Z,10.25
2023-04-12T18:28:10.850Z,10.10
2023-04-12T18:33:16.934Z,10.09
2023-04-12T18:38:20.128Z,10.08
2023-04-12T18:43:23.059Z,10.11
2023-04-12T18:48:28.268Z,10.06
2023-04-12T18:53:31.693Z,10.10
2023-04-12T19:03:41.990Z,9.89
2023-04-12T19:08:45.270Z,9.88
2023-04-12T19:13:48.793Z,9.76
2023-04-12T19:18:53.321Z,9.84
2023-04-12T19:23:57.061Z,9.77
2023-04-12T19:29:01.079Z,9.16
2023-04-12T19:34:06.843Z,9.74
2023-04-12T19:39:10.180Z,9.67
2023-04-12T19:44:14.097Z,9.71
2023-04-12T19:49:18.673Z,9.70
2023-04-12T19:54:23.865Z,9.76
2023-04-12T19:59:30.877Z,9.79
2023-04-12T20:04:36.168Z,9.78
2023-04-12T20:09:40.085Z,9.93
2023-04-12T20:14:43.098Z,9.73
2023-04-12T20:19:47.743Z,9.74
2023-04-12T20:24:53.449Z,9.77
2023-04-12T20:29:56.966Z,9.75
2023-04-12T20:35:02.704Z,9.73
2023-04-12T20:40:09.302Z,9.62
2023-04-12T20:45:13.368Z,9.54
2023-04-12T20:50:18.825Z,9.55
2023-04-12T20:55:25.503Z,9.41
2023-04-12T21:00:29.818Z,9.36
2023-04-12T21:05:36.119Z,9.20
2023-04-12T21:10:41.051Z,9.15
2023-04-12T21:15:44.768Z,9.05
2023-04-12T21:20:49.775Z,9.09
2023-04-12T21:25:52.780Z,9.07
2023-04-12T21:30:56.597Z,9.04
2023-04-12T21:36:00.622Z,8.95
2023-04-12T21:41:07.177Z,9.05
2023-04-12T21:46:09.788Z,9.06
2023-04-12T21:51:13.784Z,8.96
2023-04-12T21:56:16.334Z,8.94
2023-04-12T22:01:19.349Z,8.85
2023-04-12T22:06:23.328Z,8.88
2023-04-12T22:11:25.974Z,8.99
2023-04-12T22:16:28.506Z,8.93
2023-04-12T22:21:33.330Z,8.95
2023-04-12T22:26:35.906Z,8.89
2023-04-12T22:31:39.327Z,8.91
2023-04-12T22:36:44.863Z,8.88
2023-04-12T22:41:49.683Z,8.92
2023-04-12T22:46:54.375Z,8.93
2023-04-12T22:51:58.432Z,8.95
2023-04-12T22:57:02.275Z,8.99
2023-04-12T23:02:05.003Z,8.94
2023-04-12T23:07:09.478Z,8.92
2023-04-12T23:12:12.409Z,9.00
2023-04-12T23:17:16.725Z,8.86
2023-04-12T23:22:48.381Z,8.91
2023-04-12T23:27:56.286Z,8.94
2023-04-12T23:32:59.979Z,8.94
2023-04-12T23:38:03.900Z,8.93
2023-04-12T23:43:08.427Z,8.95
2023-04-12T23:48:11.565Z,8.99
2023-04-12T23:53:16.259Z,9.02
2023-04-12T23:58:19.364Z,9.04
